createdAt,value
2018-07-23T00:01:15.297Z,20.76
2018-07-23T00:03:46.064Z,20.76
2018-07-23T00:06:15.574Z,20.72
2018-07-23T00:08:45.449Z,20.44
2018-07-23T00:11:18.029Z,20.40
2018-07-23T00:13:47.801Z,20.36
2018-07-23T00:16:18.020Z,20.20
2018-07-23T00:18:48.685Z,19.65
2018-07-23T00:21:20.707Z,19.69
2018-07-23T00:23:50.557Z,19.74
2018-07-23T00:26:21.728Z,19.69
2018-07-23T00:28:51.474Z,19.74
2018-07-23T00:31:22.945Z,19.75
2018-07-23T00:33:53.225Z,19.66
2018-07-23T00:36:23.195Z,19.77
2018-07-23T00:38:52.928Z,19.72
2018-07-23T00:41:23.356Z,19.70
2018-07-23T00:43:52.676Z,19.47
2018-07-23T00:46:23.425Z,19.31
2018-07-23T00:48:52.805Z,19.32
2018-07-23T00:51:22.590Z,19.27
2018-07-23T00:53:51.944Z,19.29
2018-07-23T00:56:21.492Z,19.31
2018-07-23T00:58:51.516Z,19.34
2018-07-23T01:01:21.518Z,19.37
2018-07-23T01:03:51.279Z,19.23
2018-07-23T01:06:20.615Z,19.21
2018-07-23T01:08:50.989Z,19.23
2018-07-23T01:11:21.209Z,19.05
2018-07-23T01:13:50.598Z,18.99
2018-07-23T01:16:19.924Z,18.84
2018-07-23T01:18:49.276Z,18.77
2018-07-23T01:21:18.829Z,18.77
2018-07-23T01:23:49.069Z,18.69
2018-07-23T01:26:18.373Z,18.73
2018-07-23T01:28:47.728Z,18.68
2018-07-23T01:31:17.771Z,18.79
2018-07-23T01:33:47.464Z,18.82
2018-07-23T01:36:17.146Z,18.69
2018-07-23T01:38:46.581Z,18.80
2018-07-23T01:41:15.921Z,18.88
2018-07-23T01:43:45.496Z,18.88
2018-07-23T01:46:15.211Z,18.96
2018-07-23T01:48:44.777Z,18.94
2018-07-23T01:51:14.092Z,19.00
2018-07-23T01:53:44.420Z,18.98
2018-07-23T01:56:14.432Z,18.99
2018-07-23T01:58:43.764Z,19.07
2018-07-23T02:01:13.540Z,19.02
2018-07-23T02:03:43.755Z,19.00
2018-07-23T02:06:14.343Z,18.99
2018-07-23T02:08:44.688Z,19.03
2018-07-23T02:11:15.322Z,19.03
2018-07-23T02:13:46.506Z,18.99
2018-07-23T02:16:16.958Z,19.00
2018-07-23T02:18:46.337Z,18.86
2018-07-23T02:21:16.614Z,18.82
2018-07-23T02:23:46.396Z,18.63
2018-07-23T02:26:16.030Z,18.55
2018-07-23T02:28:47.432Z,18.61
2018-07-23T02:31:18.770Z,18.33
2018-07-23T02:33:48.881Z,18.29
2018-07-23T02:36:18.615Z,18.29
2018-07-23T02:38:47.971Z,18.31
2018-07-23T02:41:17.967Z,18.33
2018-07-23T02:43:47.816Z,18.27
2018-07-23T02:46:18.264Z,18.37
2018-07-23T02:48:48.148Z,18.40
2018-07-23T02:51:18.013Z,18.37
2018-07-23T02:53:47.897Z,18.44
2018-07-23T02:56:17.638Z,18.45
2018-07-23T02:58:47.557Z,18.52
2018-07-23T03:01:18.286Z,18.36
2018-07-23T03:03:47.846Z,18.19
2018-07-23T03:06:17.500Z,18.01
2018-07-23T03:08:52.204Z,18.10
2018-07-23T03:11:22.044Z,18.20
2018-07-23T03:13:53.805Z,18.24
2018-07-23T03:16:23.528Z,18.03
2018-07-23T03:18:53.090Z,17.80
2018-07-23T03:21:24.553Z,18.00
2018-07-23T03:23:53.887Z,18.07
2018-07-23T03:26:23.196Z,18.08
2018-07-23T03:28:52.716Z,18.09
2018-07-23T03:31:23.275Z,18.13
2018-07-23T03:33:53.507Z,17.99
2018-07-23T03:36:23.583Z,18.02
2018-07-23T03:38:54.086Z,18.02
2018-07-23T03:41:23.567Z,18.22
2018-07-23T03:43:53.303Z,18.21
2018-07-23T03:46:22.939Z,18.33
2018-07-23T03:48:53.093Z,18.38
2018-07-23T03:51:22.866Z,18.39
2018-07-23T03:53:52.411Z,18.32
2018-07-23T03:56:26.019Z,18.34
2018-07-23T03:58:56.244Z,18.36
2018-07-23T04:01:27.348Z,18.30
2018-07-23T04:03:56.645Z,18.20
2018-07-23T04:06:26.914Z,18.01
2018-07-23T04:08:56.722Z,18.03
2018-07-23T04:11:26.754Z,17.99
2018-07-23T04:13:56.198Z,17.87
2018-07-23T04:16:25.586Z,17.76
2018-07-23T04:18:55.227Z,17.71
2018-07-23T04:21:25.203Z,17.64
2018-07-23T04:23:55.002Z,17.63
2018-07-23T04:26:24.951Z,17.67
2018-07-23T04:28:54.590Z,17.87
2018-07-23T04:31:29.071Z,18.09
2018-07-23T04:33:58.767Z,18.20
2018-07-23T04:36:29.564Z,18.14
2018-07-23T04:38:58.890Z,18.18
2018-07-23T04:41:29.076Z,18.20
2018-07-23T04:43:59.353Z,18.24
2018-07-23T04:46:29.068Z,18.31
2018-07-23T04:48:58.815Z,18.29
2018-07-23T04:51:33.883Z,18.31
2018-07-23T04:54:04.027Z,18.26
2018-07-23T04:56:33.388Z,18.06
2018-07-23T04:59:03.111Z,18.14
2018-07-23T05:01:33.418Z,18.20
2018-07-23T05:04:02.969Z,18.15
2018-07-23T05:06:32.685Z,18.09
2018-07-23T05:09:02.027Z,17.94
2018-07-23T05:11:32.427Z,18.15
2018-07-23T05:14:02.101Z,18.15
2018-07-23T05:16:32.288Z,18.42
2018-07-23T05:19:02.659Z,18.52
2018-07-23T05:21:32.219Z,18.65
2018-07-23T05:24:01.559Z,18.64
2018-07-23T05:26:30.924Z,18.72
2018-07-23T05:29:00.296Z,18.70
2018-07-23T05:31:29.882Z,18.81
2018-07-23T05:33:59.519Z,18.75
2018-07-23T05:36:30.511Z,18.76
2018-07-23T05:39:00.225Z,18.80
2018-07-23T05:41:30.060Z,18.83
2018-07-23T05:44:00.875Z,19.01
2018-07-23T05:46:30.204Z,19.17
2018-07-23T05:48:59.953Z,19.25
2018-07-23T05:51:29.349Z,19.40
2018-07-23T05:53:59.100Z,19.57
2018-07-23T05:56:28.926Z,19.74
2018-07-23T05:58:58.292Z,19.72
2018-07-23T06:01:28.093Z,19.87
2018-07-23T06:03:57.416Z,19.92
2018-07-23T06:06:27.020Z,20.00
2018-07-23T06:08:56.610Z,20.04
2018-07-23T06:11:26.199Z,20.22
2018-07-23T06:13:56.091Z,20.15
2018-07-23T06:16:25.423Z,20.04
2018-07-23T06:18:54.752Z,20.16
2018-07-23T06:21:24.152Z,20.17
2018-07-23T06:23:53.476Z,20.31
2018-07-23T06:26:22.833Z,20.52
2018-07-23T06:28:52.232Z,20.42
2018-07-23T06:31:22.004Z,20.47
2018-07-23T06:33:51.904Z,20.62
2018-07-23T06:36:21.193Z,20.69
2018-07-23T06:38:51.934Z,20.75
2018-07-23T06:41:22.403Z,20.87
2018-07-23T06:43:52.781Z,20.99
2018-07-23T06:46:22.159Z,21.04
2018-07-23T06:48:51.481Z,21.03
2018-07-23T06:51:21.340Z,21.14
2018-07-23T06:53:51.703Z,21.14
2018-07-23T06:56:22.965Z,21.26
2018-07-23T06:58:52.523Z,21.32
2018-07-23T07:01:21.858Z,21.63
2018-07-23T07:03:51.864Z,21.62
2018-07-23T07:06:21.246Z,21.77
2018-07-23T07:08:51.336Z,21.92
2018-07-23T07:11:21.387Z,22.10
2018-07-23T07:13:51.544Z,21.84
2018-07-23T07:16:21.747Z,22.16
2018-07-23T07:18:54.048Z,22.33
2018-07-23T07:21:23.465Z,22.50
2018-07-23T07:23:52.791Z,22.21
2018-07-23T07:26:23.223Z,21.95
2018-07-23T07:28:53.178Z,22.25
2018-07-23T07:31:23.610Z,22.36
2018-07-23T07:33:53.263Z,22.36
2018-07-23T07:36:22.596Z,22.43
2018-07-23T07:38:52.344Z,22.46
2018-07-23T07:41:21.934Z,22.61
2018-07-23T07:43:51.305Z,22.89
2018-07-23T07:46:21.211Z,23.10
2018-07-23T07:48:50.508Z,23.29
2018-07-23T07:51:19.851Z,23.60
2018-07-23T07:53:49.188Z,23.73
2018-07-23T07:56:20.010Z,23.59
2018-07-23T07:58:50.144Z,23.55
2018-07-23T08:01:19.647Z,23.53
2018-07-23T08:03:50.176Z,23.84
2018-07-23T08:06:19.498Z,23.80
2018-07-23T08:08:50.858Z,23.99
2018-07-23T08:11:20.237Z,24.29
2018-07-23T08:13:51.369Z,24.22
2018-07-23T08:16:20.718Z,24.01
2018-07-23T08:18:50.385Z,23.78
2018-07-23T08:21:19.859Z,24.14
2018-07-23T08:23:49.558Z,24.02
2018-07-23T08:26:19.252Z,24.41
2018-07-23T08:28:48.708Z,24.70
2018-07-23T08:31:18.218Z,24.90
2018-07-23T08:33:48.704Z,24.94
2018-07-23T08:36:18.278Z,25.21
2018-07-23T08:38:47.899Z,25.47
2018-07-23T08:41:17.274Z,25.36
2018-07-23T08:43:48.517Z,25.61
2018-07-23T08:46:18.558Z,25.64
2018-07-23T08:48:48.591Z,25.72
2018-07-23T08:51:17.994Z,26.13
2018-07-23T08:53:47.280Z,26.26
2018-07-23T08:56:17.469Z,26.17
2018-07-23T08:58:47.960Z,26.49
2018-07-23T09:01:18.150Z,26.34
2018-07-23T09:03:47.453Z,26.49
2018-07-23T09:06:17.376Z,26.27
2018-07-23T09:08:46.755Z,26.29
2018-07-23T09:11:16.075Z,26.24
2018-07-23T09:13:46.139Z,26.32
2018-07-23T09:16:15.778Z,26.23
2018-07-23T09:18:45.504Z,26.44
2018-07-23T09:21:14.800Z,25.84
2018-07-23T09:23:44.234Z,25.96
2018-07-23T09:26:15.178Z,25.76
2018-07-23T09:28:45.503Z,26.46
2018-07-23T09:31:14.839Z,26.64
2018-07-23T09:33:45.008Z,26.86
2018-07-23T09:36:15.144Z,26.49
2018-07-23T09:38:44.503Z,27.08
2018-07-23T09:41:13.855Z,27.39
2018-07-23T09:43:44.112Z,27.10
2018-07-23T09:46:14.501Z,27.06
2018-07-23T09:48:45.327Z,27.35
2018-07-23T09:51:15.071Z,27.67
2018-07-23T09:53:45.316Z,27.91
2018-07-23T09:56:20.612Z,27.86
2018-07-23T09:58:49.949Z,27.98
2018-07-23T10:01:19.761Z,27.12
2018-07-23T10:03:50.023Z,27.27
2018-07-23T10:06:20.207Z,27.42
2018-07-23T10:08:49.544Z,27.78
2018-07-23T10:11:19.671Z,28.02
2018-07-23T10:13:49.013Z,27.74
2018-07-23T10:16:18.333Z,28.10
2018-07-23T10:18:47.977Z,28.36
2018-07-23T10:21:17.926Z,28.36
2018-07-23T10:23:47.248Z,27.94
2018-07-23T10:26:18.906Z,27.81
2018-07-23T10:28:48.997Z,27.38
2018-07-23T10:31:19.637Z,27.27
2018-07-23T10:33:49.876Z,27.92
2018-07-23T10:36:19.824Z,27.33
2018-07-23T10:38:49.670Z,28.00
2018-07-23T10:41:19.796Z,28.43
2018-07-23T10:43:49.481Z,27.93
2018-07-23T10:46:20.037Z,27.90
2018-07-23T10:48:50.868Z,28.06
2018-07-23T10:51:20.420Z,28.55
2018-07-23T10:53:51.182Z,28.56
2018-07-23T10:56:20.487Z,29.16
2018-07-23T10:58:50.137Z,29.59
2018-07-23T11:01:19.716Z,29.54
2018-07-23T11:03:49.465Z,29.78
2018-07-23T11:06:18.806Z,29.91
2018-07-23T11:08:48.154Z,30.24
2018-07-23T11:11:17.448Z,30.52
2018-07-23T11:13:48.048Z,30.59
2018-07-23T11:16:18.116Z,29.82
2018-07-23T11:18:48.799Z,29.84
2018-07-23T11:21:18.094Z,29.79
2018-07-23T11:23:47.710Z,30.27
2018-07-23T11:26:18.461Z,30.55
2018-07-23T11:28:48.152Z,30.65
2018-07-23T11:31:17.488Z,30.08
2018-07-23T11:33:47.364Z,30.56
2018-07-23T11:36:16.698Z,30.48
2018-07-23T11:38:46.453Z,30.46
2018-07-23T11:41:16.662Z,30.44
2018-07-23T11:43:46.040Z,30.14
2018-07-23T11:46:24.449Z,28.72
2018-07-23T11:48:45.014Z,28.77
2018-07-23T11:51:15.131Z,29.84
2018-07-23T11:53:44.564Z,30.04
2018-07-23T11:56:13.814Z,28.68
2018-07-23T11:58:43.367Z,28.59
2018-07-23T12:01:13.069Z,29.05
2018-07-23T12:03:42.391Z,29.90
2018-07-23T12:06:12.181Z,30.39
2018-07-23T12:08:42.659Z,30.69
2018-07-23T12:11:12.214Z,30.83
2018-07-23T12:13:41.943Z,30.81
2018-07-23T12:16:12.280Z,30.32
2018-07-23T12:18:41.867Z,30.46
2018-07-23T12:21:11.225Z,30.55
2018-07-23T12:23:40.540Z,30.34
2018-07-23T12:26:10.161Z,30.45
2018-07-23T12:28:40.355Z,31.12
2018-07-23T12:31:09.896Z,31.50
2018-07-23T12:33:39.728Z,31.67
2018-07-23T12:36:10.013Z,31.95
2018-07-23T12:38:39.595Z,31.93
2018-07-23T12:41:10.314Z,32.18
2018-07-23T12:43:39.852Z,32.18
2018-07-23T12:46:09.878Z,32.15
2018-07-23T12:48:39.739Z,30.71
2018-07-23T12:51:09.580Z,31.55
2018-07-23T12:53:39.936Z,31.77
2018-07-23T12:56:10.584Z,31.84
2018-07-23T12:58:41.275Z,32.11
2018-07-23T13:01:11.543Z,31.70
2018-07-23T13:03:40.962Z,31.91
2018-07-23T13:06:10.505Z,30.63
2018-07-23T13:08:40.249Z,31.29
2018-07-23T13:11:09.593Z,31.66
2018-07-23T13:13:39.234Z,31.96
2018-07-23T13:16:08.805Z,31.96
2018-07-23T13:18:38.611Z,32.63
2018-07-23T13:21:08.295Z,32.63
2018-07-23T13:23:37.941Z,32.90
2018-07-23T13:26:08.120Z,32.87
2018-07-23T13:28:37.476Z,33.66
2018-07-23T13:31:08.045Z,33.71
2018-07-23T13:33:38.241Z,33.45
2018-07-23T13:36:07.824Z,33.18
2018-07-23T13:38:39.000Z,31.40
2018-07-23T13:41:08.362Z,31.04
2018-07-23T13:43:37.771Z,32.14
2018-07-23T13:46:07.068Z,32.20
2018-07-23T13:48:36.624Z,32.84
2018-07-23T13:51:06.453Z,32.22
2018-07-23T13:53:36.953Z,32.78
2018-07-23T13:56:06.690Z,32.37
2018-07-23T13:58:36.034Z,31.46
2018-07-23T14:01:06.726Z,31.14
2018-07-23T14:03:36.303Z,31.23
2018-07-23T14:06:05.654Z,31.10
2018-07-23T14:08:34.996Z,31.84
2018-07-23T14:11:08.455Z,31.77
2018-07-23T14:13:37.774Z,32.00
2018-07-23T14:16:07.080Z,32.65
2018-07-23T14:18:36.380Z,32.95
2018-07-23T14:21:05.732Z,32.31
2018-07-23T14:23:35.108Z,31.77
2018-07-23T14:26:04.814Z,31.27
2018-07-23T14:28:34.189Z,31.24
2018-07-23T14:31:04.538Z,29.69
2018-07-23T14:33:34.559Z,30.10
2018-07-23T14:36:03.862Z,31.46
2018-07-23T14:38:33.208Z,31.46
2018-07-23T14:41:05.294Z,31.51
2018-07-23T14:43:36.110Z,32.58
2018-07-23T14:46:05.982Z,32.68
2018-07-23T14:48:35.887Z,32.64
2018-07-23T14:51:06.269Z,32.54
2018-07-23T14:53:35.918Z,32.06
2018-07-23T14:56:05.263Z,31.69
2018-07-23T14:58:34.556Z,31.61
2018-07-23T15:01:04.309Z,29.93
2018-07-23T15:03:33.605Z,31.03
2018-07-23T15:06:02.938Z,32.26
2018-07-23T15:08:32.730Z,31.17
2018-07-23T15:11:03.350Z,32.25
2018-07-23T15:13:32.957Z,32.75
2018-07-23T15:16:02.620Z,32.63
2018-07-23T15:18:31.908Z,33.34
2018-07-23T15:21:01.270Z,33.26
2018-07-23T15:23:36.512Z,33.40
2018-07-23T15:26:06.240Z,32.63
2018-07-23T15:28:35.964Z,31.50
2018-07-23T15:31:05.573Z,31.99
2018-07-23T15:33:36.692Z,32.22
2018-07-23T15:36:06.059Z,32.72
2018-07-23T15:38:36.213Z,32.56
2018-07-23T15:41:05.497Z,32.72
2018-07-23T15:43:35.286Z,32.72
2018-07-23T15:46:05.182Z,33.06
2018-07-23T15:48:34.331Z,32.85
2018-07-23T15:51:04.895Z,32.89
2018-07-23T15:53:37.967Z,33.13
2018-07-23T15:56:07.315Z,33.14
2018-07-23T15:58:36.624Z,33.21
2018-07-23T16:01:07.368Z,32.72
2018-07-23T16:03:38.851Z,32.62
2018-07-23T16:06:08.218Z,32.78
2018-07-23T16:08:37.578Z,32.62
2018-07-23T16:11:07.437Z,32.97
2018-07-23T16:13:36.751Z,33.24
2018-07-23T16:16:06.365Z,34.21
2018-07-23T16:18:36.463Z,34.13
2018-07-23T16:21:06.857Z,34.54
2018-07-23T16:23:36.668Z,33.93
2018-07-23T16:26:06.507Z,33.53
2018-07-23T16:28:36.092Z,33.35
2018-07-23T16:31:06.266Z,33.74
2018-07-23T16:33:35.644Z,33.34
2018-07-23T16:36:05.035Z,33.19
2018-07-23T16:38:34.360Z,33.49
2018-07-23T16:41:03.797Z,33.54
2018-07-23T16:43:34.692Z,34.02
2018-07-23T16:46:04.120Z,33.59
2018-07-23T16:48:33.449Z,33.82
2018-07-23T16:51:02.760Z,33.81
2018-07-23T16:53:32.298Z,34.13
2018-07-23T16:56:02.501Z,33.71
2018-07-23T16:58:32.773Z,32.94
2018-07-23T17:01:02.541Z,33.59
2018-07-23T17:03:31.843Z,33.69
2018-07-23T17:06:01.206Z,33.45
2018-07-23T17:08:30.507Z,33.49
2018-07-23T17:10:59.881Z,33.61
2018-07-23T17:13:29.514Z,34.00
2018-07-23T17:15:58.962Z,34.09
2018-07-23T17:18:29.537Z,34.48
2018-07-23T17:20:59.334Z,34.57
2018-07-23T17:23:29.063Z,34.50
2018-07-23T17:25:58.825Z,34.55
2018-07-23T17:28:29.138Z,34.78
2018-07-23T17:30:59.356Z,34.59
2018-07-23T17:33:29.060Z,34.96
2018-07-23T17:35:58.413Z,34.67
2018-07-23T17:38:28.176Z,34.71
2018-07-23T17:40:57.539Z,34.33
2018-07-23T17:43:27.135Z,33.38
2018-07-23T17:45:56.503Z,33.52
2018-07-23T17:48:25.876Z,33.29
2018-07-23T17:50:55.604Z,32.43
2018-07-23T17:53:25.368Z,32.80
2018-07-23T17:55:54.695Z,32.85
2018-07-23T17:58:24.256Z,32.80
2018-07-23T18:00:53.811Z,32.30
2018-07-23T18:03:23.514Z,32.17
2018-07-23T18:05:53.222Z,32.30
2018-07-23T18:08:23.000Z,32.04
2018-07-23T18:10:52.807Z,32.24
2018-07-23T18:13:22.067Z,32.34
2018-07-23T18:15:51.725Z,32.25
2018-07-23T18:18:21.047Z,32.44
2018-07-23T18:20:51.127Z,32.14
2018-07-23T18:23:20.419Z,31.92
2018-07-23T18:25:49.773Z,31.76
2018-07-23T18:28:19.487Z,31.44
2018-07-23T18:30:49.774Z,31.60
2018-07-23T18:33:19.083Z,31.41
2018-07-23T18:35:48.762Z,31.40
2018-07-23T18:38:18.200Z,31.21
2018-07-23T18:40:48.282Z,31.21
2018-07-23T18:43:17.583Z,31.10
2018-07-23T18:45:46.923Z,31.09
2018-07-23T18:50:28.825Z,30.92
2018-07-23T18:52:58.197Z,30.81
2018-07-23T18:55:31.716Z,30.76
2018-07-23T18:58:01.001Z,30.70
2018-07-23T19:00:30.427Z,30.53
2018-07-23T19:02:59.814Z,30.41
2018-07-23T19:05:29.119Z,30.46
2018-07-23T19:07:59.273Z,30.40
2018-07-23T19:10:30.772Z,30.41
2018-07-23T19:13:00.107Z,30.29
2018-07-23T19:15:29.836Z,30.10
2018-07-23T19:17:59.182Z,29.98
2018-07-23T19:20:29.388Z,29.74
2018-07-23T19:22:58.592Z,29.56
2018-07-23T19:25:27.899Z,29.30
2018-07-23T19:27:58.540Z,29.23
2018-07-23T19:30:28.432Z,29.19
2018-07-23T19:32:58.104Z,29.06
2018-07-23T19:35:27.399Z,29.01
2018-07-23T19:37:56.975Z,28.92
2018-07-23T19:40:29.754Z,28.78
2018-07-23T19:42:59.918Z,28.57
2018-07-23T19:45:29.776Z,28.28
2018-07-23T19:47:59.515Z,28.09
2018-07-23T19:50:29.060Z,28.07
2018-07-23T19:52:58.417Z,28.01
2018-07-23T19:55:27.725Z,28.09
2018-07-23T19:57:57.503Z,28.18
2018-07-23T20:00:26.900Z,28.07
2018-07-23T20:02:56.575Z,27.92
2018-07-23T20:05:25.918Z,27.51
2018-07-23T20:07:55.242Z,27.36
2018-07-23T20:10:24.567Z,27.26
2018-07-23T20:12:54.138Z,27.08
2018-07-23T20:15:23.560Z,26.98
2018-07-23T20:17:52.894Z,27.05
2018-07-23T20:20:22.196Z,27.00
2018-07-23T20:22:52.007Z,26.94
2018-07-23T20:25:21.315Z,26.98
2018-07-23T20:27:50.665Z,26.76
2018-07-23T20:30:19.968Z,26.78
2018-07-23T20:32:49.294Z,26.77
2018-07-23T20:35:19.063Z,26.65
2018-07-23T20:37:48.818Z,26.44
2018-07-23T20:40:18.216Z,26.40
2018-07-23T20:42:47.726Z,26.45
2018-07-23T20:45:17.533Z,26.49
2018-07-23T20:47:48.345Z,26.30
2018-07-23T20:50:17.676Z,26.41
2018-07-23T20:52:47.474Z,26.34
2018-07-23T20:55:16.780Z,25.96
2018-07-23T20:57:46.207Z,25.86
2018-07-23T21:00:16.136Z,25.50
2018-07-23T21:02:45.738Z,25.50
2018-07-23T21:05:15.067Z,25.62
2018-07-23T21:07:44.635Z,25.63
2018-07-23T21:10:14.222Z,25.63
2018-07-23T21:12:43.596Z,25.47
2018-07-23T21:15:12.927Z,25.49
2018-07-23T21:17:42.710Z,25.37
2018-07-23T21:20:12.293Z,25.24
2018-07-23T21:22:41.621Z,25.08
2018-07-23T21:25:12.133Z,25.09
2018-07-23T21:27:41.448Z,25.07
2018-07-23T21:30:11.224Z,25.12
2018-07-23T21:32:40.925Z,25.00
2018-07-23T21:35:11.017Z,24.76
2018-07-23T21:37:40.698Z,24.84
2018-07-23T21:40:10.766Z,24.75
2018-07-23T21:42:40.643Z,24.88
2018-07-23T21:45:10.485Z,24.81
2018-07-23T21:47:39.816Z,24.68
2018-07-23T21:50:09.680Z,24.62
2018-07-23T21:52:39.481Z,24.75
2018-07-23T21:55:09.898Z,24.69
2018-07-23T21:57:39.255Z,24.77
2018-07-23T22:00:12.206Z,24.74
2018-07-23T22:02:41.568Z,24.58
2018-07-23T22:05:10.981Z,24.57
2018-07-23T22:07:40.517Z,24.50
2018-07-23T22:10:10.433Z,24.43
2018-07-23T22:12:40.380Z,24.41
2018-07-23T22:15:11.327Z,24.44
2018-07-23T22:17:40.933Z,24.48
2018-07-23T22:20:10.637Z,24.44
2018-07-23T22:22:40.261Z,24.27
2018-07-23T22:25:09.665Z,24.34
2018-07-23T22:27:39.343Z,24.28
2018-07-23T22:30:09.097Z,24.37
2018-07-23T22:32:38.449Z,24.34
2018-07-23T22:35:07.763Z,24.24
2018-07-23T22:37:37.365Z,24.25
2018-07-23T22:40:07.015Z,24.10
2018-07-23T22:42:36.374Z,24.01
2018-07-23T22:45:06.308Z,23.92
2018-07-23T22:47:36.549Z,23.85
2018-07-23T22:50:05.935Z,23.71
2018-07-23T22:52:35.491Z,23.75
2018-07-23T22:55:04.851Z,23.70
2018-07-23T22:57:34.815Z,23.64
2018-07-23T23:00:04.875Z,23.67
2018-07-23T23:02:34.189Z,23.65
2018-07-23T23:05:03.554Z,23.51
2018-07-23T23:07:32.880Z,23.41
2018-07-23T23:10:02.646Z,23.35
2018-07-23T23:12:31.954Z,23.23
2018-07-23T23:15:02.321Z,22.96
2018-07-23T23:17:31.620Z,22.99
2018-07-23T23:20:00.962Z,22.89
2018-07-23T23:22:30.287Z,22.93
2018-07-23T23:24:59.675Z,22.60
2018-07-23T23:27:29.444Z,22.69
2018-07-23T23:29:59.012Z,22.69
2018-07-23T23:32:28.719Z,22.64
2018-07-23T23:34:58.783Z,22.62
2018-07-23T23:37:28.029Z,22.63
2018-07-23T23:39:57.360Z,22.59
2018-07-23T23:42:26.659Z,22.52
2018-07-23T23:44:56.607Z,22.21
2018-07-23T23:47:25.968Z,22.17
2018-07-23T23:49:55.730Z,22.19
2018-07-23T23:52:25.665Z,22.19
2018-07-23T23:54:54.993Z,22.32
2018-07-23T23:57:24.652Z,22.26
2018-07-23T23:59:54.867Z,22.33
